sensor_id;sensor_type;location;lat;lon;timestamp;P1;durP1;ratioP1;P2;durP2;ratioP2
3225;SDS011;1625;49.884;8.666;2022-12-24T00:00:30;9.00;;;3.30;;
3225;SDS011;1625;49.884;8.666;2022-12-24T00:02:55;7.80;;;4.00;;
3225;SDS011;1625;49.884;8.666;2022-12-24T00:05:21;11.77;;;3.30;;
3225;SDS011;1625;49.884;8.666;2022-12-24T00:07:46;5.93;;;3.13;;
3225;SDS011;1625;49.884;8.666;2022-12-24T00:10:12;11.10;;;3.37;;
3225;SDS011;1625;49.884;8.666;2022-12-24T00:12:37;4.20;;;2.40;;
3225;SDS011;1625;49.884;8.666;2022-12-24T00:15:03;5.80;;;3.10;;
3225;SDS011;1625;49.884;8.666;2022-12-24T00:17:29;5.37;;;2.00;;
3225;SDS011;1625;49.884;8.666;2022-12-24T00:19:55;4.07;;;2.10;;
3225;SDS011;1625;49.884;8.666;2022-12-24T00:22:21;6.57;;;2.30;;
3225;SDS011;1625;49.884;8.666;2022-12-24T00:24:46;9.80;;;2.80;;
3225;SDS011;1625;49.884;8.666;2022-12-24T00:27:12;6.07;;;2.70;;
3225;SDS011;1625;49.884;8.666;2022-12-24T00:29:37;7.70;;;2.93;;
3225;SDS011;1625;49.884;8.666;2022-12-24T00:32:03;9.43;;;3.10;;
3225;SDS011;1625;49.884;8.666;2022-12-24T00:34:33;8.60;;;3.17;;
3225;SDS011;1625;49.884;8.666;2022-12-24T00:37:02;8.80;;;3.97;;
3225;SDS011;1625;49.884;8.666;2022-12-24T00:39:28;5.77;;;2.93;;
3225;SDS011;1625;49.884;8.666;2022-12-24T00:41:54;8.13;;;3.03;;
3225;SDS011;1625;49.884;8.666;2022-12-24T00:44:20;8.87;;;3.70;;
3225;SDS011;1625;49.884;8.666;2022-12-24T00:46:46;10.50;;;2.90;;
3225;SDS011;1625;49.884;8.666;2022-12-24T00:49:11;8.00;;;3.10;;
3225;SDS011;1625;49.884;8.666;2022-12-24T00:51:37;7.17;;;2.70;;
3225;SDS011;1625;49.884;8.666;2022-12-24T00:54:03;5.13;;;2.63;;
3225;SDS011;1625;49.884;8.666;2022-12-24T00:56:29;6.13;;;3.63;;
3225;SDS011;1625;49.884;8.666;2022-12-24T00:58:54;8.70;;;3.13;;
3225;SDS011;1625;49.884;8.666;2022-12-24T01:01:20;5.73;;;2.90;;
3225;SDS011;1625;49.884;8.666;2022-12-24T01:03:46;11.43;;;3.30;;
3225;SDS011;1625;49.884;8.666;2022-12-24T01:06:13;6.90;;;3.10;;
3225;SDS011;1625;49.884;8.666;2022-12-24T01:08:40;8.70;;;3.03;;
3225;SDS011;1625;49.884;8.666;2022-12-24T01:11:07;8.23;;;2.83;;
3225;SDS011;1625;49.884;8.666;2022-12-24T01:13:34;7.63;;;2.90;;
3225;SDS011;1625;49.884;8.666;2022-12-24T01:16:16;7.40;;;3.63;;
3225;SDS011;1625;49.884;8.666;2022-12-24T01:19:05;6.33;;;2.90;;
3225;SDS011;1625;49.884;8.666;2022-12-24T01:21:33;5.27;;;2.60;;
3225;SDS011;1625;49.884;8.666;2022-12-24T01:24:16;7.73;;;3.17;;
3225;SDS011;1625;49.884;8.666;2022-12-24T01:26:45;5.90;;;2.70;;
3225;SDS011;1625;49.884;8.666;2022-12-24T01:29:14;9.93;;;3.17;;
3225;SDS011;1625;49.884;8.666;2022-12-24T01:31:40;7.47;;;3.23;;
3225;SDS011;1625;49.884;8.666;2022-12-24T01:34:05;7.47;;;2.93;;
3225;SDS011;1625;49.884;8.666;2022-12-24T01:36:31;7.40;;;3.10;;
3225;SDS011;1625;49.884;8.666;2022-12-24T01:38:56;6.83;;;2.90;;
3225;SDS011;1625;49.884;8.666;2022-12-24T01:41:22;6.30;;;2.63;;
3225;SDS011;1625;49.884;8.666;2022-12-24T01:44:18;8.07;;;2.90;;
3225;SDS011;1625;49.884;8.666;2022-12-24T01:46:50;8.73;;;3.10;;
3225;SDS011;1625;49.884;8.666;2022-12-24T01:49:23;5.47;;;2.27;;
3225;SDS011;1625;49.884;8.666;2022-12-24T01:52:05;6.00;;;2.87;;
3225;SDS011;1625;49.884;8.666;2022-12-24T01:54:42;7.43;;;3.37;;
3225;SDS011;1625;49.884;8.666;2022-12-24T01:57:16;8.10;;;3.40;;
3225;SDS011;1625;49.884;8.666;2022-12-24T01:59:54;7.33;;;3.80;;
3225;SDS011;1625;49.884;8.666;2022-12-24T02:02:25;8.60;;;2.73;;
3225;SDS011;1625;49.884;8.666;2022-12-24T02:04:54;8.63;;;3.20;;
3225;SDS011;1625;49.884;8.666;2022-12-24T02:07:30;5.73;;;2.70;;
3225;SDS011;1625;49.884;8.666;2022-12-24T02:09:57;6.73;;;2.70;;
3225;SDS011;1625;49.884;8.666;2022-12-24T02:12:25;5.87;;;3.23;;
3225;SDS011;1625;49.884;8.666;2022-12-24T02:14:53;5.67;;;2.90;;
3225;SDS011;1625;49.884;8.666;2022-12-24T02:28:35;10.20;;;2.90;;
3225;SDS011;1625;49.884;8.666;2022-12-24T02:31:40;9.43;;;3.13;;
3225;SDS011;1625;49.884;8.666;2022-12-24T02:34:14;6.63;;;3.00;;
3225;SDS011;1625;49.884;8.666;2022-12-24T02:39:51;8.60;;;3.20;;
3225;SDS011;1625;49.884;8.666;2022-12-24T02:42:23;7.57;;;3.20;;
3225;SDS011;1625;49.884;8.666;2022-12-24T02:44:57;8.87;;;2.80;;
3225;SDS011;1625;49.884;8.666;2022-12-24T02:47:30;10.23;;;3.60;;
3225;SDS011;1625;49.884;8.666;2022-12-24T02:49:58;6.90;;;3.00;;
3225;SDS011;1625;49.884;8.666;2022-12-24T02:52:34;12.40;;;3.27;;
3225;SDS011;1625;49.884;8.666;2022-12-24T02:55:22;7.20;;;3.03;;
3225;SDS011;1625;49.884;8.666;2022-12-24T02:58:16;7.90;;;2.37;;
3225;SDS011;1625;49.884;8.666;2022-12-24T03:01:13;6.50;;;3.10;;
3225;SDS011;1625;49.884;8.666;2022-12-24T03:06:49;6.47;;;3.10;;
3225;SDS011;1625;49.884;8.666;2022-12-24T03:09:47;9.77;;;3.20;;
3225;SDS011;1625;49.884;8.666;2022-12-24T03:12:23;12.50;;;3.63;;
3225;SDS011;1625;49.884;8.666;2022-12-24T03:15:06;5.47;;;2.73;;
3225;SDS011;1625;49.884;8.666;2022-12-24T03:17:39;10.33;;;3.53;;
3225;SDS011;1625;49.884;8.666;2022-12-24T03:20:10;7.63;;;2.73;;
3225;SDS011;1625;49.884;8.666;2022-12-24T03:22:36;10.13;;;2.63;;
3225;SDS011;1625;49.884;8.666;2022-12-24T03:25:03;7.07;;;2.70;;
3225;SDS011;1625;49.884;8.666;2022-12-24T03:27:29;5.47;;;2.50;;
3225;SDS011;1625;49.884;8.666;2022-12-24T03:29:57;7.83;;;2.70;;
3225;SDS011;1625;49.884;8.666;2022-12-24T03:32:24;7.13;;;3.30;;
3225;SDS011;1625;49.884;8.666;2022-12-24T03:34:53;7.83;;;2.87;;
3225;SDS011;1625;49.884;8.666;2022-12-24T03:37:19;8.87;;;2.50;;
3225;SDS011;1625;49.884;8.666;2022-12-24T03:39:45;9.33;;;3.13;;
3225;SDS011;1625;49.884;8.666;2022-12-24T03:42:10;6.10;;;2.43;;
3225;SDS011;1625;49.884;8.666;2022-12-24T03:44:36;10.50;;;3.73;;
3225;SDS011;1625;49.884;8.666;2022-12-24T03:47:02;9.97;;;3.60;;
3225;SDS011;1625;49.884;8.666;2022-12-24T03:49:27;5.60;;;2.87;;
3225;SDS011;1625;49.884;8.666;2022-12-24T03:51:53;8.53;;;3.40;;
3225;SDS011;1625;49.884;8.666;2022-12-24T03:54:18;9.13;;;3.17;;
3225;SDS011;1625;49.884;8.666;2022-12-24T03:56:44;5.90;;;2.50;;
3225;SDS011;1625;49.884;8.666;2022-12-24T03:59:09;8.30;;;4.20;;
3225;SDS011;1625;49.884;8.666;2022-12-24T04:01:35;7.50;;;3.00;;
3225;SDS011;1625;49.884;8.666;2022-12-24T04:04:00;9.17;;;2.77;;
3225;SDS011;1625;49.884;8.666;2022-12-24T04:06:26;10.37;;;4.13;;
3225;SDS011;1625;49.884;8.666;2022-12-24T04:08:51;4.57;;;2.70;;
3225;SDS011;1625;49.884;8.666;2022-12-24T04:11:17;7.57;;;3.20;;
3225;SDS011;1625;49.884;8.666;2022-12-24T04:13:43;6.40;;;2.40;;
3225;SDS011;1625;49.884;8.666;2022-12-24T04:16:10;10.47;;;3.40;;
3225;SDS011;1625;49.884;8.666;2022-12-24T04:18:38;9.37;;;3.03;;
3225;SDS011;1625;49.884;8.666;2022-12-24T04:21:04;7.30;;;2.73;;
3225;SDS011;1625;49.884;8.666;2022-12-24T04:23:30;6.70;;;2.40;;
3225;SDS011;1625;49.884;8.666;2022-12-24T04:26:03;10.50;;;2.90;;
3225;SDS011;1625;49.884;8.666;2022-12-24T04:28:37;11.03;;;3.17;;
3225;SDS011;1625;49.884;8.666;2022-12-24T04:31:08;10.67;;;3.10;;
3225;SDS011;1625;49.884;8.666;2022-12-24T04:33:42;11.87;;;3.30;;
3225;SDS011;1625;49.884;8.666;2022-12-24T04:36:15;10.80;;;3.30;;
3225;SDS011;1625;49.884;8.666;2022-12-24T04:38:48;10.50;;;4.00;;
3225;SDS011;1625;49.884;8.666;2022-12-24T04:41:19;9.37;;;3.30;;
3225;SDS011;1625;49.884;8.666;2022-12-24T04:43:48;7.63;;;2.83;;
3225;SDS011;1625;49.884;8.666;2022-12-24T04:46:16;6.83;;;2.90;;
3225;SDS011;1625;49.884;8.666;2022-12-24T04:48:46;7.80;;;2.93;;
3225;SDS011;1625;49.884;8.666;2022-12-24T04:51:13;12.00;;;3.80;;
3225;SDS011;1625;49.884;8.666;2022-12-24T04:53:40;9.63;;;3.13;;
3225;SDS011;1625;49.884;8.666;2022-12-24T04:56:07;6.33;;;2.70;;
3225;SDS011;1625;49.884;8.666;2022-12-24T04:58:38;10.30;;;3.40;;
3225;SDS011;1625;49.884;8.666;2022-12-24T05:01:08;10.47;;;3.53;;
3225;SDS011;1625;49.884;8.666;2022-12-24T05:03:37;8.63;;;3.60;;
3225;SDS011;1625;49.884;8.666;2022-12-24T05:06:03;8.53;;;4.13;;
3225;SDS011;1625;49.884;8.666;2022-12-24T05:08:30;9.27;;;2.77;;
3225;SDS011;1625;49.884;8.666;2022-12-24T05:10:57;10.77;;;3.53;;
3225;SDS011;1625;49.884;8.666;2022-12-24T05:13:24;7.20;;;3.00;;
3225;SDS011;1625;49.884;8.666;2022-12-24T05:15:50;9.47;;;2.70;;
3225;SDS011;1625;49.884;8.666;2022-12-24T05:18:16;8.70;;;2.97;;
3225;SDS011;1625;49.884;8.666;2022-12-24T05:20:41;8.63;;;4.00;;
3225;SDS011;1625;49.884;8.666;2022-12-24T05:23:08;9.87;;;3.30;;
3225;SDS011;1625;49.884;8.666;2022-12-24T05:25:58;7.87;;;3.40;;
3225;SDS011;1625;49.884;8.666;2022-12-24T05:28:48;7.83;;;3.30;;
3225;SDS011;1625;49.884;8.666;2022-12-24T05:31:17;8.83;;;3.87;;
3225;SDS011;1625;49.884;8.666;2022-12-24T05:33:43;13.03;;;3.90;;
3225;SDS011;1625;49.884;8.666;2022-12-24T05:36:09;9.93;;;3.47;;
3225;SDS011;1625;49.884;8.666;2022-12-24T05:38:40;7.33;;;3.63;;
3225;SDS011;1625;49.884;8.666;2022-12-24T05:41:14;11.77;;;3.93;;
3225;SDS011;1625;49.884;8.666;2022-12-24T05:43:40;10.37;;;4.07;;
3225;SDS011;1625;49.884;8.666;2022-12-24T05:46:06;9.23;;;3.90;;
3225;SDS011;1625;49.884;8.666;2022-12-24T05:48:37;13.03;;;3.90;;
3225;SDS011;1625;49.884;8.666;2022-12-24T05:51:03;9.10;;;3.50;;
3225;SDS011;1625;49.884;8.666;2022-12-24T05:53:30;14.63;;;3.90;;
3225;SDS011;1625;49.884;8.666;2022-12-24T05:56:07;6.43;;;3.23;;
3225;SDS011;1625;49.884;8.666;2022-12-24T05:58:34;10.13;;;4.00;;
3225;SDS011;1625;49.884;8.666;2022-12-24T06:01:01;10.70;;;3.60;;
3225;SDS011;1625;49.884;8.666;2022-12-24T06:03:28;11.00;;;4.50;;
3225;SDS011;1625;49.884;8.666;2022-12-24T06:05:58;8.77;;;4.37;;
3225;SDS011;1625;49.884;8.666;2022-12-24T06:08:28;11.07;;;3.83;;
3225;SDS011;1625;49.884;8.666;2022-12-24T06:10:59;8.23;;;3.57;;
3225;SDS011;1625;49.884;8.666;2022-12-24T06:13:38;7.27;;;3.80;;
3225;SDS011;1625;49.884;8.666;2022-12-24T06:16:17;9.70;;;4.10;;
3225;SDS011;1625;49.884;8.666;2022-12-24T06:18:46;11.23;;;3.93;;
3225;SDS011;1625;49.884;8.666;2022-12-24T06:21:12;9.20;;;3.93;;
3225;SDS011;1625;49.884;8.666;2022-12-24T06:23:38;9.43;;;3.90;;
3225;SDS011;1625;49.884;8.666;2022-12-24T06:26:06;12.90;;;3.90;;
3225;SDS011;1625;49.884;8.666;2022-12-24T06:28:33;8.87;;;3.83;;
3225;SDS011;1625;49.884;8.666;2022-12-24T06:31:01;10.90;;;4.50;;
3225;SDS011;1625;49.884;8.666;2022-12-24T06:33:27;8.43;;;3.87;;
3225;SDS011;1625;49.884;8.666;2022-12-24T06:35:53;9.90;;;4.33;;
3225;SDS011;1625;49.884;8.666;2022-12-24T06:38:19;15.20;;;5.20;;
3225;SDS011;1625;49.884;8.666;2022-12-24T06:40:45;16.37;;;4.40;;
3225;SDS011;1625;49.884;8.666;2022-12-24T06:43:11;10.53;;;4.67;;
3225;SDS011;1625;49.884;8.666;2022-12-24T06:45:37;10.17;;;4.40;;
3225;SDS011;1625;49.884;8.666;2022-12-24T06:48:03;9.80;;;3.97;;
3225;SDS011;1625;49.884;8.666;2022-12-24T06:50:31;11.77;;;4.67;;
3225;SDS011;1625;49.884;8.666;2022-12-24T06:52:57;6.00;;;4.40;;
3225;SDS011;1625;49.884;8.666;2022-12-24T06:55:22;9.80;;;4.07;;
3225;SDS011;1625;49.884;8.666;2022-12-24T06:57:48;9.50;;;5.33;;
3225;SDS011;1625;49.884;8.666;2022-12-24T07:00:14;11.50;;;4.50;;
3225;SDS011;1625;49.884;8.666;2022-12-24T07:02:43;8.23;;;3.90;;
3225;SDS011;1625;49.884;8.666;2022-12-24T07:05:09;11.20;;;4.97;;
3225;SDS011;1625;49.884;8.666;2022-12-24T07:07:37;10.70;;;4.37;;
3225;SDS011;1625;49.884;8.666;2022-12-24T07:10:03;10.47;;;4.50;;
3225;SDS011;1625;49.884;8.666;2022-12-24T07:12:30;13.00;;;5.10;;
3225;SDS011;1625;49.884;8.666;2022-12-24T07:14:56;11.00;;;4.10;;
3225;SDS011;1625;49.884;8.666;2022-12-24T07:17:31;10.30;;;5.13;;
3225;SDS011;1625;49.884;8.666;2022-12-24T07:19:57;12.27;;;4.60;;
3225;SDS011;1625;49.884;8.666;2022-12-24T07:22:22;9.00;;;4.57;;
3225;SDS011;1625;49.884;8.666;2022-12-24T07:24:48;12.03;;;4.37;;
3225;SDS011;1625;49.884;8.666;2022-12-24T07:27:13;12.50;;;5.73;;
3225;SDS011;1625;49.884;8.666;2022-12-24T07:29:39;9.87;;;3.50;;
3225;SDS011;1625;49.884;8.666;2022-12-24T07:32:05;10.10;;;5.23;;
3225;SDS011;1625;49.884;8.666;2022-12-24T07:34:30;10.83;;;4.60;;
3225;SDS011;1625;49.884;8.666;2022-12-24T07:36:56;8.07;;;4.33;;
3225;SDS011;1625;49.884;8.666;2022-12-24T07:39:21;10.03;;;4.00;;
3225;SDS011;1625;49.884;8.666;2022-12-24T07:41:47;11.60;;;4.50;;
3225;SDS011;1625;49.884;8.666;2022-12-24T07:44:17;13.00;;;5.23;;
3225;SDS011;1625;49.884;8.666;2022-12-24T07:46:43;12.17;;;4.23;;
3225;SDS011;1625;49.884;8.666;2022-12-24T07:49:10;12.80;;;4.17;;
3225;SDS011;1625;49.884;8.666;2022-12-24T07:51:35;12.73;;;4.10;;
3225;SDS011;1625;49.884;8.666;2022-12-24T07:54:01;14.57;;;5.43;;
3225;SDS011;1625;49.884;8.666;2022-12-24T07:56:28;10.30;;;4.57;;
3225;SDS011;1625;49.884;8.666;2022-12-24T07:58:55;15.40;;;5.33;;
3225;SDS011;1625;49.884;8.666;2022-12-24T08:01:20;8.83;;;4.33;;
3225;SDS011;1625;49.884;8.666;2022-12-24T08:03:46;11.00;;;4.50;;
3225;SDS011;1625;49.884;8.666;2022-12-24T08:06:11;12.27;;;4.27;;
3225;SDS011;1625;49.884;8.666;2022-12-24T08:08:37;11.17;;;4.80;;
3225;SDS011;1625;49.884;8.666;2022-12-24T08:11:03;12.10;;;4.70;;
3225;SDS011;1625;49.884;8.666;2022-12-24T08:13:30;11.60;;;4.83;;
3225;SDS011;1625;49.884;8.666;2022-12-24T08:15:56;11.30;;;4.10;;
3225;SDS011;1625;49.884;8.666;2022-12-24T08:18:21;13.83;;;5.23;;
3225;SDS011;1625;49.884;8.666;2022-12-24T08:20:47;13.60;;;4.70;;
3225;SDS011;1625;49.884;8.666;2022-12-24T08:23:12;12.10;;;4.50;;
3225;SDS011;1625;49.884;8.666;2022-12-24T08:25:41;10.63;;;4.20;;
3225;SDS011;1625;49.884;8.666;2022-12-24T08:28:07;9.83;;;4.77;;
3225;SDS011;1625;49.884;8.666;2022-12-24T08:30:33;14.60;;;5.50;;
3225;SDS011;1625;49.884;8.666;2022-12-24T08:33:00;11.13;;;4.20;;
3225;SDS011;1625;49.884;8.666;2022-12-24T08:35:25;9.37;;;4.47;;
3225;SDS011;1625;49.884;8.666;2022-12-24T08:37:51;12.00;;;4.33;;
3225;SDS011;1625;49.884;8.666;2022-12-24T08:40:16;10.43;;;4.83;;
3225;SDS011;1625;49.884;8.666;2022-12-24T08:42:42;9.03;;;4.37;;
3225;SDS011;1625;49.884;8.666;2022-12-24T08:45:08;14.00;;;3.80;;
3225;SDS011;1625;49.884;8.666;2022-12-24T08:47:35;11.20;;;5.20;;
3225;SDS011;1625;49.884;8.666;2022-12-24T08:50:02;14.47;;;4.60;;
3225;SDS011;1625;49.884;8.666;2022-12-24T08:52:28;12.60;;;5.17;;
3225;SDS011;1625;49.884;8.666;2022-12-24T08:54:54;15.57;;;5.03;;
3225;SDS011;1625;49.884;8.666;2022-12-24T08:57:20;11.03;;;4.27;;
3225;SDS011;1625;49.884;8.666;2022-12-24T08:59:45;11.47;;;4.33;;
3225;SDS011;1625;49.884;8.666;2022-12-24T09:02:11;16.93;;;4.57;;
3225;SDS011;1625;49.884;8.666;2022-12-24T09:04:37;13.83;;;4.50;;
3225;SDS011;1625;49.884;8.666;2022-12-24T09:07:06;15.00;;;4.47;;
3225;SDS011;1625;49.884;8.666;2022-12-24T09:09:33;11.27;;;4.00;;
3225;SDS011;1625;49.884;8.666;2022-12-24T09:11:59;12.87;;;4.13;;
3225;SDS011;1625;49.884;8.666;2022-12-24T09:14:24;16.43;;;4.57;;
3225;SDS011;1625;49.884;8.666;2022-12-24T09:16:53;17.30;;;5.80;;
3225;SDS011;1625;49.884;8.666;2022-12-24T09:19:19;16.77;;;5.03;;
3225;SDS011;1625;49.884;8.666;2022-12-24T09:21:44;15.43;;;5.20;;
3225;SDS011;1625;49.884;8.666;2022-12-24T09:24:10;17.80;;;4.47;;
3225;SDS011;1625;49.884;8.666;2022-12-24T09:26:35;15.80;;;5.10;;
3225;SDS011;1625;49.884;8.666;2022-12-24T09:29:01;18.13;;;5.43;;
3225;SDS011;1625;49.884;8.666;2022-12-24T09:31:27;16.03;;;4.43;;
3225;SDS011;1625;49.884;8.666;2022-12-24T09:33:53;17.87;;;4.80;;
3225;SDS011;1625;49.884;8.666;2022-12-24T09:36:19;10.77;;;4.77;;
3225;SDS011;1625;49.884;8.666;2022-12-24T09:38:45;11.63;;;4.60;;
3225;SDS011;1625;49.884;8.666;2022-12-24T09:43:43;11.20;;;4.60;;
3225;SDS011;1625;49.884;8.666;2022-12-24T09:46:21;10.20;;;4.63;;
3225;SDS011;1625;49.884;8.666;2022-12-24T09:48:53;18.30;;;5.00;;
3225;SDS011;1625;49.884;8.666;2022-12-24T09:51:27;17.00;;;5.00;;
3225;SDS011;1625;49.884;8.666;2022-12-24T09:56:29;17.00;;;5.70;;
3225;SDS011;1625;49.884;8.666;2022-12-24T09:58:59;17.57;;;5.87;;
3225;SDS011;1625;49.884;8.666;2022-12-24T10:05:33;13.10;;;5.10;;
3225;SDS011;1625;49.884;8.666;2022-12-24T10:08:16;18.53;;;5.23;;
3225;SDS011;1625;49.884;8.666;2022-12-24T10:11:01;16.87;;;6.30;;
3225;SDS011;1625;49.884;8.666;2022-12-24T10:16:47;14.07;;;4.53;;
3225;SDS011;1625;49.884;8.666;2022-12-24T10:24:55;11.80;;;3.73;;
3225;SDS011;1625;49.884;8.666;2022-12-24T10:27:29;12.33;;;4.60;;
3225;SDS011;1625;49.884;8.666;2022-12-24T10:30:01;10.80;;;4.20;;
3225;SDS011;1625;49.884;8.666;2022-12-24T10:32:32;12.60;;;4.57;;
3225;SDS011;1625;49.884;8.666;2022-12-24T10:35:00;10.47;;;4.50;;
3225;SDS011;1625;49.884;8.666;2022-12-24T10:37:32;25.40;;;5.03;;
3225;SDS011;1625;49.884;8.666;2022-12-24T10:39:58;18.30;;;4.40;;
3225;SDS011;1625;49.884;8.666;2022-12-24T10:42:31;12.70;;;4.57;;
3225;SDS011;1625;49.884;8.666;2022-12-24T10:45:03;14.37;;;5.57;;
3225;SDS011;1625;49.884;8.666;2022-12-24T10:47:32;15.03;;;4.83;;
3225;SDS011;1625;49.884;8.666;2022-12-24T10:52:59;13.40;;;6.00;;
3225;SDS011;1625;49.884;8.666;2022-12-24T10:55:49;15.20;;;4.40;;
3225;SDS011;1625;49.884;8.666;2022-12-24T10:58:24;12.37;;;4.83;;
3225;SDS011;1625;49.884;8.666;2022-12-24T11:00:50;16.03;;;5.13;;
3225;SDS011;1625;49.884;8.666;2022-12-24T11:05:43;9.83;;;4.93;;
3225;SDS011;1625;49.884;8.666;2022-12-24T11:10:39;13.57;;;4.60;;
3225;SDS011;1625;49.884;8.666;2022-12-24T11:13:16;14.57;;;4.97;;
3225;SDS011;1625;49.884;8.666;2022-12-24T11:15:58;13.63;;;4.80;;
3225;SDS011;1625;49.884;8.666;2022-12-24T11:18:48;11.20;;;4.87;;
3225;SDS011;1625;49.884;8.666;2022-12-24T11:21:23;14.90;;;5.27;;
3225;SDS011;1625;49.884;8.666;2022-12-24T11:23:55;15.87;;;5.30;;
3225;SDS011;1625;49.884;8.666;2022-12-24T11:26:28;10.67;;;5.30;;
3225;SDS011;1625;49.884;8.666;2022-12-24T11:31:44;13.60;;;5.20;;
3225;SDS011;1625;49.884;8.666;2022-12-24T11:34:21;16.33;;;5.50;;
3225;SDS011;1625;49.884;8.666;2022-12-24T11:36:48;19.63;;;5.63;;
3225;SDS011;1625;49.884;8.666;2022-12-24T11:39:19;16.30;;;5.07;;
3225;SDS011;1625;49.884;8.666;2022-12-24T11:41:46;15.70;;;5.23;;
3225;SDS011;1625;49.884;8.666;2022-12-24T11:44:26;15.00;;;4.50;;
3225;SDS011;1625;49.884;8.666;2022-12-24T11:46:55;14.97;;;5.63;;
3225;SDS011;1625;49.884;8.666;2022-12-24T11:49:29;13.07;;;4.80;;
3225;SDS011;1625;49.884;8.666;2022-12-24T11:54:26;13.87;;;5.77;;
3225;SDS011;1625;49.884;8.666;2022-12-24T11:57:00;13.27;;;4.77;;
3225;SDS011;1625;49.884;8.666;2022-12-24T11:59:31;13.00;;;4.80;;
3225;SDS011;1625;49.884;8.666;2022-12-24T12:02:12;14.80;;;6.80;;
3225;SDS011;1625;49.884;8.666;2022-12-24T12:05:02;20.13;;;5.57;;
3225;SDS011;1625;49.884;8.666;2022-12-24T12:08:05;19.77;;;5.17;;
3225;SDS011;1625;49.884;8.666;2022-12-24T12:10:37;14.90;;;4.37;;
3225;SDS011;1625;49.884;8.666;2022-12-24T12:13:07;16.57;;;5.60;;
3225;SDS011;1625;49.884;8.666;2022-12-24T12:15:39;13.30;;;5.07;;
3225;SDS011;1625;49.884;8.666;2022-12-24T12:18:14;10.93;;;6.20;;
3225;SDS011;1625;49.884;8.666;2022-12-24T12:20:44;14.70;;;4.77;;
3225;SDS011;1625;49.884;8.666;2022-12-24T12:23:32;12.40;;;5.50;;
3225;SDS011;1625;49.884;8.666;2022-12-24T12:26:01;14.37;;;4.97;;
3225;SDS011;1625;49.884;8.666;2022-12-24T12:28:40;14.83;;;5.47;;
3225;SDS011;1625;49.884;8.666;2022-12-24T12:31:34;12.73;;;5.40;;
3225;SDS011;1625;49.884;8.666;2022-12-24T12:34:12;14.47;;;5.40;;
3225;SDS011;1625;49.884;8.666;2022-12-24T12:36:42;12.13;;;4.07;;
3225;SDS011;1625;49.884;8.666;2022-12-24T12:39:11;14.70;;;4.70;;
3225;SDS011;1625;49.884;8.666;2022-12-24T12:50:30;15.20;;;5.10;;
3225;SDS011;1625;49.884;8.666;2022-12-24T12:53:52;14.93;;;5.30;;
3225;SDS011;1625;49.884;8.666;2022-12-24T12:56:09;10.70;;;5.47;;
3225;SDS011;1625;49.884;8.666;2022-12-24T13:02:00;12.87;;;4.53;;
3225;SDS011;1625;49.884;8.666;2022-12-24T13:04:55;10.90;;;4.83;;
3225;SDS011;1625;49.884;8.666;2022-12-24T13:07:48;13.00;;;4.00;;
3225;SDS011;1625;49.884;8.666;2022-12-24T13:21:19;14.33;;;5.47;;
3225;SDS011;1625;49.884;8.666;2022-12-24T13:23:47;14.90;;;5.20;;
3225;SDS011;1625;49.884;8.666;2022-12-24T13:26:13;14.57;;;5.37;;
3225;SDS011;1625;49.884;8.666;2022-12-24T13:28:39;15.00;;;5.80;;
3225;SDS011;1625;49.884;8.666;2022-12-24T13:33:53;12.77;;;6.10;;
3225;SDS011;1625;49.884;8.666;2022-12-24T13:36:21;18.43;;;5.20;;
3225;SDS011;1625;49.884;8.666;2022-12-24T13:38:56;14.33;;;5.80;;
3225;SDS011;1625;49.884;8.666;2022-12-24T13:44:03;16.53;;;6.83;;
3225;SDS011;1625;49.884;8.666;2022-12-24T13:46:47;21.47;;;5.70;;
3225;SDS011;1625;49.884;8.666;2022-12-24T13:49:20;12.97;;;5.50;;
3225;SDS011;1625;49.884;8.666;2022-12-24T13:51:50;12.60;;;4.97;;
3225;SDS011;1625;49.884;8.666;2022-12-24T13:54:28;13.83;;;6.10;;
3225;SDS011;1625;49.884;8.666;2022-12-24T13:56:54;10.97;;;4.90;;
3225;SDS011;1625;49.884;8.666;2022-12-24T13:59:25;15.53;;;6.63;;
3225;SDS011;1625;49.884;8.666;2022-12-24T14:02:00;15.40;;;5.00;;
3225;SDS011;1625;49.884;8.666;2022-12-24T14:04:27;11.23;;;5.37;;
3225;SDS011;1625;49.884;8.666;2022-12-24T14:06:57;17.70;;;6.47;;
3225;SDS011;1625;49.884;8.666;2022-12-24T14:09:25;21.57;;;6.27;;
3225;SDS011;1625;49.884;8.666;2022-12-24T14:14:31;15.77;;;5.67;;
3225;SDS011;1625;49.884;8.666;2022-12-24T14:17:00;15.80;;;6.13;;
3225;SDS011;1625;49.884;8.666;2022-12-24T14:19:46;9.40;;;6.00;;
3225;SDS011;1625;49.884;8.666;2022-12-24T14:24:47;8.23;;;4.50;;
3225;SDS011;1625;49.884;8.666;2022-12-24T14:27:23;13.27;;;5.33;;
3225;SDS011;1625;49.884;8.666;2022-12-24T14:30:35;12.73;;;5.30;;
3225;SDS011;1625;49.884;8.666;2022-12-24T14:32:49;15.07;;;5.90;;
3225;SDS011;1625;49.884;8.666;2022-12-24T14:40:16;10.90;;;4.63;;
3225;SDS011;1625;49.884;8.666;2022-12-24T14:42:53;13.73;;;5.10;;
3225;SDS011;1625;49.884;8.666;2022-12-24T14:45:36;11.97;;;5.30;;
3225;SDS011;1625;49.884;8.666;2022-12-24T14:48:29;13.50;;;5.30;;
3225;SDS011;1625;49.884;8.666;2022-12-24T14:59:42;15.23;;;5.77;;
3225;SDS011;1625;49.884;8.666;2022-12-24T15:08:00;10.97;;;4.30;;
3225;SDS011;1625;49.884;8.666;2022-12-24T15:10:41;16.13;;;5.70;;
3225;SDS011;1625;49.884;8.666;2022-12-24T15:13:14;15.30;;;4.73;;
3225;SDS011;1625;49.884;8.666;2022-12-24T15:15:50;8.77;;;4.03;;
3225;SDS011;1625;49.884;8.666;2022-12-24T15:18:19;7.93;;;4.50;;
3225;SDS011;1625;49.884;8.666;2022-12-24T15:20:48;11.17;;;5.53;;
3225;SDS011;1625;49.884;8.666;2022-12-24T15:23:21;8.70;;;4.30;;
3225;SDS011;1625;49.884;8.666;2022-12-24T15:25:51;9.70;;;4.17;;
3225;SDS011;1625;49.884;8.666;2022-12-24T15:28:34;11.30;;;3.90;;
3225;SDS011;1625;49.884;8.666;2022-12-24T15:31:15;9.27;;;3.90;;
3225;SDS011;1625;49.884;8.666;2022-12-24T15:33:46;8.70;;;4.20;;
3225;SDS011;1625;49.884;8.666;2022-12-24T15:36:13;11.03;;;4.57;;
3225;SDS011;1625;49.884;8.666;2022-12-24T15:38:41;14.63;;;5.20;;
3225;SDS011;1625;49.884;8.666;2022-12-24T15:41:15;8.77;;;4.17;;
3225;SDS011;1625;49.884;8.666;2022-12-24T15:43:50;9.90;;;5.10;;
3225;SDS011;1625;49.884;8.666;2022-12-24T15:46:18;10.73;;;5.00;;
3225;SDS011;1625;49.884;8.666;2022-12-24T15:48:51;12.60;;;5.30;;
3225;SDS011;1625;49.884;8.666;2022-12-24T15:51:26;9.73;;;4.73;;
3225;SDS011;1625;49.884;8.666;2022-12-24T15:54:05;11.57;;;4.10;;
3225;SDS011;1625;49.884;8.666;2022-12-24T15:56:36;9.37;;;4.77;;
3225;SDS011;1625;49.884;8.666;2022-12-24T16:01:49;7.10;;;4.40;;
3225;SDS011;1625;49.884;8.666;2022-12-24T16:04:16;15.53;;;4.87;;
3225;SDS011;1625;49.884;8.666;2022-12-24T16:06:50;12.03;;;4.17;;
3225;SDS011;1625;49.884;8.666;2022-12-24T16:12:19;9.07;;;4.20;;
3225;SDS011;1625;49.884;8.666;2022-12-24T16:14:57;8.90;;;4.33;;
3225;SDS011;1625;49.884;8.666;2022-12-24T16:17:25;11.00;;;5.30;;
3225;SDS011;1625;49.884;8.666;2022-12-24T16:19:53;10.20;;;5.07;;
3225;SDS011;1625;49.884;8.666;2022-12-24T16:22:22;12.27;;;4.90;;
3225;SDS011;1625;49.884;8.666;2022-12-24T16:25:00;9.70;;;5.10;;
3225;SDS011;1625;49.884;8.666;2022-12-24T16:27:39;12.40;;;5.37;;
3225;SDS011;1625;49.884;8.666;2022-12-24T16:30:05;7.90;;;5.37;;
3225;SDS011;1625;49.884;8.666;2022-12-24T16:32:32;15.63;;;5.97;;
3225;SDS011;1625;49.884;8.666;2022-12-24T16:34:59;14.40;;;6.70;;
3225;SDS011;1625;49.884;8.666;2022-12-24T16:37:27;11.33;;;5.97;;
3225;SDS011;1625;49.884;8.666;2022-12-24T16:39:52;11.10;;;6.07;;
3225;SDS011;1625;49.884;8.666;2022-12-24T16:42:18;14.53;;;6.30;;
3225;SDS011;1625;49.884;8.666;2022-12-24T16:45:03;10.87;;;6.53;;
3225;SDS011;1625;49.884;8.666;2022-12-24T16:47:30;9.03;;;5.60;;
3225;SDS011;1625;49.884;8.666;2022-12-24T16:49:57;10.50;;;5.90;;
3225;SDS011;1625;49.884;8.666;2022-12-24T16:52:27;13.47;;;6.17;;
3225;SDS011;1625;49.884;8.666;2022-12-24T16:54:54;10.47;;;6.13;;
3225;SDS011;1625;49.884;8.666;2022-12-24T16:57:21;13.67;;;6.53;;
3225;SDS011;1625;49.884;8.666;2022-12-24T16:59:47;13.10;;;6.13;;
3225;SDS011;1625;49.884;8.666;2022-12-24T17:02:14;10.67;;;5.83;;
3225;SDS011;1625;49.884;8.666;2022-12-24T17:04:41;13.47;;;7.63;;
3225;SDS011;1625;49.884;8.666;2022-12-24T17:07:08;12.30;;;6.83;;
3225;SDS011;1625;49.884;8.666;2022-12-24T17:09:35;12.60;;;7.20;;
3225;SDS011;1625;49.884;8.666;2022-12-24T17:12:00;9.30;;;7.17;;
3225;SDS011;1625;49.884;8.666;2022-12-24T17:14:26;12.37;;;6.67;;